Time;durP1;ratioP1;P1;durP2;ratioP2;P2;SDS_P1;SDS_P2;PMS_P1;PMS_P2;Temp;Humidity;BMP_temperature;BMP_pressure;BME280_temperature;BME280_humidity;BME280_pressure;Samples;Min_cycle;Max_cycle;Signal;HPM_P1;HPM_P2
2022/05/03 00:02:10;;;;;;;6.95;5.12;;;;;;;7.67;100.00;101225.94;1756962;80;21828;-78
2022/05/03 00:05:07;;;;;;;6.50;4.70;;;;;;;7.66;100.00;101220.37;1746293;80;22543;-77
2022/05/03 00:08:04;;;;;;;8.18;6.03;;;;;;;7.62;100.00;101222.77;1757048;80;21061;-80
2022/05/03 00:10:40;;;;;;;7.58;5.42;;;;;;;7.54;100.00;101220.13;1756987;80;21172;-80
2022/05/03 00:13:12;;;;;;;9.85;6.00;;;;;;;7.44;100.00;101222.81;1723440;80;21127;-79
2022/05/03 00:15:41;;;;;;;6.42;5.83;;;;;;;7.33;100.00;101219.96;1740591;81;20934;-77
2022/05/03 00:18:08;;;;;;;7.53;5.97;;;;;;;7.24;100.00;101221.25;1757632;81;21104;-77
2022/05/03 00:20:36;;;;;;;7.00;6.30;;;;;;;7.17;100.00;101219.42;1756965;80;21068;-77
2022/05/03 00:23:04;;;;;;;7.85;6.28;;;;;;;7.12;100.00;101216.25;1757423;80;21108;-77
2022/05/03 00:25:33;;;;;;;7.55;5.97;;;;;;;7.05;100.00;101216.18;1757099;80;21065;-79
2022/05/03 00:28:01;;;;;;;7.85;6.28;;;;;;;6.96;100.00;101217.49;1756970;80;21006;-78
2022/05/03 00:30:30;;;;;;;11.55;6.83;;;;;;;6.88;100.00;101215.75;1756683;80;21869;-77
2022/05/03 00:32:59;;;;;;;8.38;7.17;;;;;;;6.81;100.00;101216.50;1749094;80;21045;-77
2022/05/03 00:35:27;;;;;;;8.25;6.67;;;;;;;6.75;100.00;101210.34;1811714;78;20981;-76
2022/05/03 00:37:56;;;;;;;7.90;6.35;;;;;;;6.69;100.00;101210.17;1811240;78;21063;-81
2022/05/03 00:40:25;;;;;;;8.20;6.42;;;;;;;6.67;100.00;101207.29;1811198;78;21496;-82
2022/05/03 00:43:04;;;;;;;7.47;5.95;;;;;;;6.66;100.00;101206.91;1810707;78;21527;-78
2022/05/03 00:45:58;;;;;;;8.97;6.70;;;;;;;6.66;100.00;101204.31;1807503;79;21546;-78
2022/05/03 00:49:13;;;;;;;9.18;6.30;;;;;;;6.66;100.00;101209.02;1809649;78;22599;-77
2022/05/03 00:51:47;;;;;;;12.53;7.03;;;;;;;6.63;100.00;101206.13;1811613;78;21021;-77
2022/05/03 00:54:23;;;;;;;8.23;6.17;;;;;;;6.57;100.00;101201.27;1810933;78;21126;-78
2022/05/03 00:57:28;;;;;;;9.73;6.35;;;;;;;6.52;100.00;101200.66;1807720;78;21877;-83
2022/05/03 01:00:09;;;;;;;8.58;6.28;;;;;;;6.48;100.00;101203.00;1807200;78;21116;-78
2022/05/03 01:02:58;;;;;;;8.15;6.35;;;;;;;6.42;100.00;101199.42;1811622;78;21573;-78
2022/05/03 01:05:30;;;;;;;8.65;5.85;;;;;;;6.37;100.00;101194.47;1791816;78;21088;-80
2022/05/03 01:08:09;;;;;;;7.00;6.05;;;;;;;6.39;100.00;101195.24;1764847;79;21017;-78
2022/05/03 01:11:13;;;;;;;6.87;6.17;;;;;;;6.45;100.00;101197.97;1811447;78;21543;-78
2022/05/03 01:13:53;;;;;;;8.45;6.40;;;;;;;6.52;100.00;101194.20;1810962;78;22373;-79
2022/05/03 01:16:34;;;;;;;7.25;5.92;;;;;;;6.58;100.00;101199.50;1808371;78;21611;-78
2022/05/03 01:19:38;;;;;;;;;;;;;;;6.61;100.00;101201.48;1812657;79;20969;-78
2022/05/03 01:22:45;;;;;;;9.63;6.33;;;;;;;6.60;100.00;101198.98;1811091;78;20174;-78
2022/05/03 01:25:45;;;;;;;10.82;6.08;;;;;;;6.55;100.00;101194.50;1810907;78;21294;-79
2022/05/03 01:28:33;;;;;;;6.40;5.67;;;;;;;6.46;100.00;101196.62;1811512;78;21080;-79
2022/05/03 01:31:11;;;;;;;8.03;6.15;;;;;;;6.38;100.00;101192.70;1790166;79;21502;-77
2022/05/03 01:33:48;;;;;;;8.55;6.25;;;;;;;6.31;100.00;101193.02;1802744;78;21026;-78
2022/05/03 01:36:21;;;;;;;11.12;7.30;;;;;;;6.29;100.00;101193.53;1802841;78;20992;-78
2022/05/03 01:39:22;;;;;;;11.03;6.78;;;;;;;6.22;100.00;101193.45;1733009;79;21156;-78
2022/05/03 01:42:10;;;;;;;13.88;6.58;;;;;;;6.17;100.00;101188.13;1751627;80;21027;-76
2022/05/03 01:44:43;;;;;;;7.53;6.47;;;;;;;6.12;100.00;101183.18;1721487;82;20991;-78
2022/05/03 01:47:52;;;;;;;9.10;6.80;;;;;;;6.03;100.00;101183.61;1715338;81;21041;-76
2022/05/03 01:50:45;;;;;;;6.78;5.70;;;;;;;5.95;100.00;101189.09;1736286;82;21026;-78
2022/05/03 01:53:39;;;;;;;10.28;6.20;;;;;;;5.91;100.00;101190.16;1714058;83;21734;-80
2022/05/03 01:56:38;;;;;;;7.58;6.53;;;;;;;5.92;100.00;101201.70;1712656;82;21041;-77
2022/05/03 01:59:26;;;;;;;8.30;5.85;;;;;;;5.99;100.00;101191.49;1712344;82;21191;-77
2022/05/03 02:02:14;;;;;;;8.28;6.50;;;;;;;6.08;100.00;101197.14;1656352;82;21053;-78
2022/05/03 02:04:52;;;;;;;7.97;5.80;;;;;;;6.14;100.00;101194.27;1717179;82;21009;-78
2022/05/03 02:07:49;;;;;;;7.12;6.03;;;;;;;6.20;100.00;101197.88;1714537;83;21905;-77
2022/05/03 02:10:38;;;;;;;7.75;5.97;;;;;;;6.21;100.00;101191.77;1716095;82;21006;-77
2022/05/03 02:13:30;;;;;;;7.58;6.00;;;;;;;6.21;100.00;101185.77;1686862;82;35352;-77
2022/05/03 02:16:03;;;;;;;9.53;6.42;;;;;;;6.19;100.00;101191.46;1716301;82;21100;-79
2022/05/03 02:18:41;;;;;;;8.13;6.58;;;;;;;6.19;100.00;101192.31;1712481;82;21503;-78
2022/05/03 02:21:20;;;;;;;7.62;6.08;;;;;;;6.22;100.00;101190.86;1716726;82;21950;-80
2022/05/03 02:24:04;;;;;;;10.03;6.20;;;;;;;6.27;100.00;101195.38;1718925;82;21034;-77
2022/05/03 02:27:10;;;;;;;6.55;5.92;;;;;;;6.27;100.00;101193.23;1687824;82;21041;-77
2022/05/03 02:29:49;;;;;;;7.50;6.22;;;;;;;6.30;100.00;101197.80;1652620;86;21603;-80
2022/05/03 02:32:38;;;;;;;7.53;6.42;;;;;;;6.33;100.00;101204.56;1652181;86;21119;-77
2022/05/03 02:35:09;;;;;;;7.67;6.05;;;;;;;6.35;100.00;101206.63;1697645;82;21909;-79
2022/05/03 02:37:50;;;;;;;8.80;5.63;;;;;;;6.36;100.00;101210.90;1719060;82;21034;-77
2022/05/03 02:40:20;;;;;;;8.13;6.47;;;;;;;6.39;100.00;101211.20;1716518;82;21597;-77
2022/05/03 02:42:51;;;;;;;8.20;6.53;;;;;;;6.44;100.00;101210.55;1716862;82;21022;-77
2022/05/03 02:45:19;;;;;;;8.35;6.30;;;;;;;6.44;100.00;101211.38;1716330;83;22046;-76
2022/05/03 02:47:54;;;;;;;8.03;6.00;;;;;;;6.49;100.00;101215.03;1732556;81;21130;-78
2022/05/03 02:50:32;;;;;;;8.75;6.28;;;;;;;6.51;100.00;101210.63;1728862;81;21510;-77
2022/05/03 02:53:07;;;;;;;7.37;5.72;;;;;;;6.52;100.00;101212.75;1735477;81;21052;-77
2022/05/03 02:56:12;;;;;;;8.15;6.72;;;;;;;6.49;100.00;101205.98;1736646;82;21578;-77
2022/05/03 02:58:54;;;;;;;7.42;6.22;;;;;;;6.51;100.00;101206.75;1736836;81;21088;-78
2022/05/03 03:01:48;;;;;;;8.40;6.40;;;;;;;6.58;100.00;101208.12;1736778;81;21680;-76
2022/05/03 03:04:41;;;;;;;8.25;6.80;;;;;;;6.68;100.00;101216.27;1737144;81;21037;-81
2022/05/03 03:07:12;;;;;;;11.15;6.85;;;;;;;6.76;100.00;101216.72;1690052;82;21539;-77
2022/05/03 03:09:58;;;;;;;;;;;;;;;6.86;100.00;101224.04;1711860;82;21417;-78
2022/05/03 03:12:42;;;;;;;11.03;7.42;;;;;;;6.93;100.00;101223.64;1737606;81;20175;-76
2022/05/03 03:15:13;;;;;;;9.08;7.83;;;;;;;6.98;100.00;101219.53;1695064;82;21242;-78
2022/05/03 03:17:50;;;;;;;9.20;6.90;;;;;;;6.98;100.00;101223.41;1732677;81;21495;-77
2022/05/03 03:20:26;;;;;;;9.30;6.58;;;;;;;6.97;100.00;101227.38;1731314;81;21524;-77
2022/05/03 03:22:55;;;;;;;8.23;6.33;;;;;;;7.02;100.00;101225.38;1750859;80;21131;-77
2022/05/03 03:25:23;;;;;;;9.98;7.03;;;;;;;7.10;100.00;101225.84;1731295;81;21051;-77
2022/05/03 03:27:53;;;;;;;9.38;6.60;;;;;;;7.18;100.00;101224.17;1731387;81;21155;-78
2022/05/03 03:30:21;;;;;;;7.90;6.15;;;;;;;7.26;100.00;101231.09;1731303;81;21046;-78
2022/05/03 03:32:56;;;;;;;8.35;6.05;;;;;;;7.34;100.00;101226.79;1731511;81;21013;-79
2022/05/03 03:35:24;;;;;;;9.20;6.20;;;;;;;7.41;100.00;101232.06;1730717;81;21044;-78
2022/05/03 03:37:53;;;;;;;7.47;5.87;;;;;;;7.49;100.00;101228.58;1731395;81;21112;-82
2022/05/03 03:40:20;;;;;;;7.67;6.08;;;;;;;7.55;100.00;101224.39;1731035;81;21235;-78
2022/05/03 03:42:49;;;;;;;8.98;6.17;;;;;;;7.61;100.00;101223.69;1731137;81;21040;-78
2022/05/03 03:45:17;;;;;;;8.43;6.75;;;;;;;7.67;100.00;101226.80;1728318;81;21057;-77
2022/05/03 03:47:47;;;;;;;8.75;6.72;;;;;;;7.73;100.00;101230.83;1718873;81;21543;-77
2022/05/03 03:50:15;;;;;;;6.67;5.90;;;;;;;7.81;100.00;101234.28;1710700;82;21131;-76
2022/05/03 03:52:46;;;;;;;8.63;6.33;;;;;;;7.90;100.00;101236.39;1710886;82;21125;-78
2022/05/03 03:55:14;;;;;;;6.92;6.10;;;;;;;7.99;100.00;101232.45;1710566;83;21590;-78
2022/05/03 03:57:43;;;;;;;6.65;5.95;;;;;;;8.09;100.00;101233.63;1711328;83;21104;-77
2022/05/03 04:00:14;;;;;;;9.08;6.20;;;;;;;8.19;100.00;101236.10;1710448;82;21034;-77
2022/05/03 04:02:46;;;;;;;10.28;6.08;;;;;;;8.29;100.00;101236.90;1710140;82;21113;-83
2022/05/03 04:05:22;;;;;;;7.60;5.78;;;;;;;8.41;100.00;101240.56;1710176;83;21341;-79
2022/05/03 04:07:51;;;;;;;9.63;5.70;;;;;;;8.53;100.00;101242.02;1710334;82;21097;-77
2022/05/03 04:10:19;;;;;;;6.67;5.37;;;;;;;8.66;100.00;101245.23;1710150;82;21113;-78
2022/05/03 04:12:47;;;;;;;7.45;5.30;;;;;;;8.79;100.00;101245.36;1710267;82;21061;-77
2022/05/03 04:15:15;;;;;;;8.78;5.90;;;;;;;8.91;100.00;101238.62;1697442;82;21403;-77
2022/05/03 04:17:44;;;;;;;6.92;5.58;;;;;;;9.03;100.00;101239.67;1691833;83;21228;-78
2022/05/03 04:20:13;;;;;;;7.70;5.60;;;;;;;9.14;100.00;101239.41;1692198;83;21547;-81
2022/05/03 04:22:40;;;;;;;7.40;5.47;;;;;;;9.25;100.00;101238.77;1709883;82;21018;-78
2022/05/03 04:25:09;;;;;;;8.68;5.40;;;;;;;9.37;100.00;101241.09;1692023;83;21060;-80
2022/05/03 04:27:36;;;;;;;8.28;5.47;;;;;;;9.47;100.00;101237.47;1710122;82;21057;-78
2022/05/03 04:30:05;;;;;;;7.15;5.47;;;;;;;9.59;100.00;101235.89;1692162;83;21715;-78
2022/05/03 04:32:34;;;;;;;7.50;4.95;;;;;;;9.70;100.00;101238.67;1709683;83;21696;-78
2022/05/03 04:35:03;;;;;;;6.53;5.25;;;;;;;9.81;100.00;101236.70;1695285;84;21110;-79
2022/05/03 04:37:30;;;;;;;9.30;5.50;;;;;;;9.92;100.00;101234.73;1692266;83;21017;-81
2022/05/03 04:39:57;;;;;;;8.25;5.72;;;;;;;10.03;100.00;101234.91;1691701;83;21112;-78
2022/05/03 04:42:24;;;;;;;12.47;6.03;;;;;;;10.15;100.00;101238.95;1692220;84;21219;-77
2022/05/03 04:44:51;;;;;;;8.88;6.12;;;;;;;10.24;100.00;101236.63;1710416;83;20970;-78
2022/05/03 04:47:19;;;;;;;7.83;6.20;;;;;;;10.35;100.00;101233.77;1692503;83;21028;-77
2022/05/03 04:49:48;;;;;;;8.10;5.83;;;;;;;10.46;100.00;101226.59;1692410;84;21048;-76
2022/05/03 04:52:15;;;;;;;8.30;6.28;;;;;;;10.57;100.00;101233.26;1692336;83;21044;-76
2022/05/03 04:54:43;;;;;;;8.78;6.17;;;;;;;10.67;100.00;101229.13;1704759;83;21539;-77
2022/05/03 04:57:10;;;;;;;8.95;6.45;;;;;;;10.79;100.00;101222.72;1705230;82;21010;-78
2022/05/03 04:59:40;;;;;;;9.68;6.80;;;;;;;10.91;100.00;101229.73;1706139;83;21006;-77
2022/05/03 05:02:07;;;;;;;11.35;7.72;;;;;;;11.01;100.00;101232.10;1705592;82;21069;-77
2022/05/03 05:04:34;;;;;;;13.90;9.33;;;;;;;11.15;100.00;101225.11;1711260;82;21057;-77
2022/05/03 05:07:06;;;;;;;17.95;11.63;;;;;;;11.25;100.00;101232.68;1710315;82;21824;-79
2022/05/03 05:09:33;;;;;;;;;;;;;;;11.36;100.00;101226.24;1712996;82;21025;-81
2022/05/03 05:12:00;;;;;;;22.93;14.98;;;;;;;11.48;100.00;101228.47;1709448;83;20188;-78
2022/05/03 05:14:29;;;;;;;19.77;13.70;;;;;;;11.60;100.00;101226.78;1709458;82;21045;-79
2022/05/03 05:16:57;;;;;;;18.25;13.20;;;;;;;11.72;100.00;101225.09;1709515;83;21014;-77
2022/05/03 05:19:25;;;;;;;17.12;12.40;;;;;;;11.83;100.00;101223.87;1709555;82;21181;-77
2022/05/03 05:21:53;;;;;;;19.70;14.75;;;;;;;11.95;100.00;101216.95;1709830;83;21575;-77
2022/05/03 05:24:20;;;;;;;19.10;13.95;;;;;;;12.09;100.00;101220.37;1709487;83;21034;-77
2022/05/03 05:26:47;;;;;;;20.43;13.98;;;;;;;12.17;100.00;101220.66;1709463;82;21500;-78
2022/05/03 05:29:14;;;;;;;23.15;15.23;;;;;;;12.25;100.00;101216.19;1709259;83;21034;-79
2022/05/03 05:31:41;;;;;;;19.75;14.13;;;;;;;12.31;100.00;101211.82;1709042;83;21752;-79
2022/05/03 05:34:09;;;;;;;27.17;15.50;;;;;;;12.40;100.00;101224.21;1710746;82;21076;-78
2022/05/03 05:36:37;;;;;;;16.05;12.90;;;;;;;12.54;100.00;101215.33;1723178;81;21055;-78
2022/05/03 05:39:04;;;;;;;17.98;13.22;;;;;;;12.66;100.00;101207.06;1728106;81;21114;-78
2022/05/03 05:41:31;;;;;;;24.47;15.63;;;;;;;12.81;100.00;101216.84;1714882;81;21839;-85
2022/05/03 05:43:58;;;;;;;19.45;13.50;;;;;;;12.94;100.00;101213.66;1710332;83;21128;-78
2022/05/03 05:46:25;;;;;;;29.18;16.52;;;;;;;13.01;100.00;101211.42;1710864;83;21595;-78
2022/05/03 05:48:53;;;;;;;26.62;15.43;;;;;;;13.08;100.00;101207.88;1730009;81;21024;-81
2022/05/03 05:51:20;;;;;;;33.65;22.27;;;;;;;13.12;100.00;101204.06;1737089;81;21112;-78
2022/05/03 05:53:47;;;;;;;30.15;19.15;;;;;;;13.13;100.00;101200.50;1737375;81;21068;-77
2022/05/03 05:56:14;;;;;;;37.30;25.23;;;;;;;13.17;100.00;101199.79;1737005;81;21617;-78
2022/05/03 05:58:42;;;;;;;37.23;26.95;;;;;;;13.25;100.00;101202.19;1737079;82;20981;-79
2022/05/03 06:01:09;;;;;;;38.83;27.85;;;;;;;13.35;100.00;101198.83;1747782;80;21094;-81
2022/05/03 06:03:40;;;;;;;40.35;26.95;;;;;;;13.45;100.00;101195.90;1737342;81;21025;-77
2022/05/03 06:06:05;;;;;;;36.23;24.05;;;;;;;13.60;100.00;101193.88;1733037;81;21004;-77
2022/05/03 06:08:33;;;;;;;35.98;24.32;;;;;;;13.75;100.00;101194.42;1737296;81;21708;-80
2022/05/03 06:11:01;;;;;;;36.40;24.20;;;;;;;13.87;100.00;101190.84;1737026;81;21056;-77
2022/05/03 06:13:29;;;;;;;38.53;26.68;;;;;;;13.95;100.00;101193.32;1737097;81;21052;-76
2022/05/03 06:16:09;;;;;;;42.70;30.45;;;;;;;14.02;100.00;101192.69;1736831;81;21008;-77
2022/05/03 06:18:37;;;;;;;45.03;30.35;;;;;;;14.03;100.00;101196.16;1735737;81;21052;-78
2022/05/03 06:21:07;;;;;;;48.20;31.73;;;;;;;14.11;100.00;101191.13;1736859;81;21119;-77
2022/05/03 06:23:34;;;;;;;39.60;28.92;;;;;;;14.22;100.00;101184.20;1734197;81;21092;-78
2022/05/03 06:26:05;;;;;;;38.08;27.50;;;;;;;14.35;100.00;101188.77;1737163;81;21088;-79
2022/05/03 06:28:34;;;;;;;41.92;29.32;;;;;;;14.44;100.00;101188.02;1737047;81;21133;-78
2022/05/03 06:31:01;;;;;;;35.05;26.52;;;;;;;14.50;100.00;101187.51;1709830;82;21069;-80
2022/05/03 06:33:28;;;;;;;44.45;29.37;;;;;;;14.59;100.00;101190.32;1706775;82;21258;-79
2022/05/03 06:35:56;;;;;;;42.58;29.12;;;;;;;14.67;100.00;101190.05;1733582;81;21044;-81
2022/05/03 06:38:26;;;;;;;38.42;26.95;;;;;;;14.79;100.00;101186.06;1750758;80;21050;-79
2022/05/03 06:41:00;;;;;;;35.03;25.80;;;;;;;14.90;100.00;101181.22;1739139;80;21028;-83
2022/05/03 06:43:28;;;;;;;40.35;26.60;;;;;;;15.03;100.00;101191.02;1730099;81;21027;-80
2022/05/03 06:45:56;;;;;;;31.27;24.40;;;;;;;15.15;100.00;101189.14;1723378;82;21237;-78
2022/05/03 06:48:23;;;;;;;32.48;23.12;;;;;;;15.24;100.00;101187.53;1719633;81;21122;-79
2022/05/03 06:50:50;;;;;;;28.75;21.87;;;;;;;15.35;100.00;101188.73;1721453;81;21095;-80
2022/05/03 06:53:18;;;;;;;22.85;19.20;;;;;;;15.44;100.00;101182.69;1708401;82;21591;-78
2022/05/03 06:55:45;;;;;;;21.65;17.12;;;;;;;15.48;100.00;101185.06;1714750;82;21027;-78
2022/05/03 06:58:14;;;;;;;23.65;16.55;;;;;;;15.44;100.00;101184.50;1708610;82;21217;-81
2022/05/03 07:00:41;;;;;;;26.73;17.07;;;;;;;15.41;100.00;101177.73;1707232;82;21111;-79
2022/05/03 07:03:09;;;;;;;22.98;16.27;;;;;;;15.41;100.00;101180.35;1703635;83;21845;-78
2022/05/03 07:05:37;;;;;;;21.45;15.10;;;;;;;15.45;100.00;101180.92;1694473;84;21074;-78
2022/05/03 07:08:08;;;;;;;22.70;14.78;;;;;;;15.50;100.00;101179.20;1738184;80;21026;-79
2022/05/03 07:10:35;;;;;;;23.52;15.30;;;;;;;15.53;100.00;101165.80;1707557;82;21216;-79
2022/05/03 07:13:03;;;;;;;23.95;14.80;;;;;;;15.60;100.00;101164.29;1715177;83;21091;-78
2022/05/03 07:15:33;;;;;;;15.13;11.78;;;;;;;15.69;100.00;101166.11;1703455;83;21774;-79
2022/05/03 07:23:32;;;;;;;9.13;7.37;;;;;;;16.06;100.00;101171.22;1702780;82;21199;-78
2022/05/03 07:26:00;;;;;;;9.65;7.15;;;;;;;16.26;100.00;101165.98;1715105;83;21019;-78
2022/05/03 07:28:27;;;;;;;11.08;8.05;;;;;;;16.40;100.00;101166.37;1713011;82;21032;-78
2022/05/03 07:30:56;;;;;;;9.93;7.75;;;;;;;16.52;100.00;101162.28;1705887;82;21063;-78
2022/05/03 07:33:23;;;;;;;9.38;7.83;;;;;;;16.62;100.00;101157.00;1716369;82;21203;-80
2022/05/03 07:35:52;;;;;;;9.78;7.70;;;;;;;16.70;100.00;101157.12;1705936;83;21139;-79
2022/05/03 07:38:19;;;;;;;11.00;7.53;;;;;;;16.78;99.49;101156.42;1710302;82;21035;-80
2022/05/03 07:40:47;;;;;;;10.23;6.80;;;;;;;16.87;100.00;101151.59;1725516;80;21047;-78
2022/05/03 07:43:15;;;;;;;12.90;7.37;;;;;;;17.00;99.09;101151.30;1722391;81;21189;-79
2022/05/03 07:45:42;;;;;;;10.05;7.05;;;;;;;17.13;100.00;101146.55;1718489;82;21569;-79
2022/05/03 07:48:10;;;;;;;9.98;6.75;;;;;;;17.22;95.98;101143.52;1716853;82;21157;-78
2022/05/03 07:50:39;;;;;;;8.75;6.60;;;;;;;17.30;97.69;101144.94;1710276;82;21118;-78
2022/05/03 07:53:08;;;;;;;8.25;6.62;;;;;;;17.43;91.06;101138.48;1701701;83;21016;-78
2022/05/03 07:55:36;;;;;;;10.43;7.15;;;;;;;17.54;92.85;101142.74;1683414;82;21078;-77
2022/05/03 07:58:03;;;;;;;9.88;6.35;;;;;;;17.58;86.14;101131.77;1719157;81;21009;-77
2022/05/03 08:00:32;;;;;;;8.13;7.00;;;;;;;17.60;83.83;101127.16;1719465;82;21559;-78
2022/05/03 08:03:00;;;;;;;10.30;6.90;;;;;;;17.65;84.48;101120.97;1709094;82;21054;-78
2022/05/03 08:05:29;;;;;;;11.20;6.80;;;;;;;17.71;80.03;101122.16;1718075;81;21018;-78
2022/05/03 08:07:58;;;;;;;;;;;;;;;17.73;77.61;101118.08;1718200;82;21066;-79
2022/05/03 08:10:25;;;;;;;6.12;5.45;;;;;;;17.68;77.53;101117.20;1711013;82;20208;-78
2022/05/03 08:12:53;;;;;;;7.70;6.60;;;;;;;17.58;78.09;101109.39;1718295;83;21144;-80
2022/05/03 08:15:22;;;;;;;9.25;6.83;;;;;;;17.40;79.50;101106.70;1714427;83;21057;-79
2022/05/03 08:17:50;;;;;;;10.25;5.30;;;;;;;17.29;82.93;101109.06;1713657;82;21026;-81
2022/05/03 08:20:17;;;;;;;11.80;6.15;;;;;;;17.33;85.52;101101.23;1712203;82;21584;-82
2022/05/03 08:22:46;;;;;;;7.30;6.17;;;;;;;17.52;82.70;101095.48;1712230;82;21063;-82
2022/05/03 08:25:13;;;;;;;7.55;6.22;;;;;;;17.76;79.55;101088.31;1717894;82;22054;-78
2022/05/03 08:27:41;;;;;;;9.30;5.85;;;;;;;17.82;76.47;101088.20;1714301;81;21005;-78
2022/05/03 08:30:10;;;;;;;7.87;6.03;;;;;;;17.75;73.11;101087.97;1715455;82;21053;-79
2022/05/03 08:32:37;;;;;;;8.48;6.30;;;;;;;17.62;75.65;101090.98;1707763;82;21126;-79
2022/05/03 08:35:05;;;;;;;7.50;6.20;;;;;;;17.52;75.80;101092.03;1715258;82;21051;-79
2022/05/03 08:43:08;;;;;;;6.45;5.85;;;;;;;17.15;80.74;101085.89;1714904;81;21463;-79
2022/05/03 08:45:36;;;;;;;5.45;4.95;;;;;;;17.01;76.17;101091.14;1694273;84;21283;-79
2022/05/03 08:48:04;;;;;;;7.17;5.40;;;;;;;16.81;69.58;101101.73;1710911;82;21286;-78
2022/05/03 08:50:34;;;;;;;7.58;5.40;;;;;;;16.66;68.22;101092.66;1714035;82;21155;-79
2022/05/03 08:53:04;;;;;;;8.93;6.15;;;;;;;16.55;73.18;101089.22;1715367;81;21004;-79
2022/05/03 08:55:32;;;;;;;6.85;5.75;;;;;;;16.45;81.31;101091.04;1713759;82;21059;-78
2022/05/03 08:58:00;;;;;;;6.40;5.50;;;;;;;16.36;93.75;101086.63;1697577;83;20980;-81
2022/05/03 09:00:27;;;;;;;8.08;5.50;;;;;;;16.27;89.68;101078.28;1714793;82;21662;-78
2022/05/03 09:02:56;;;;;;;7.10;5.78;;;;;;;16.17;94.40;101078.30;1713462;81;21928;-77
2022/05/03 09:05:25;;;;;;;6.80;5.83;;;;;;;16.06;93.96;101081.92;1715834;81;20996;-79
2022/05/03 09:08:04;;;;;;;6.08;5.47;;;;;;;15.98;91.72;101076.53;1713962;82;21095;-77
2022/05/03 09:10:34;;;;;;;6.47;5.37;;;;;;;16.06;100.00;101072.72;1712812;82;21063;-77
2022/05/03 09:13:22;;;;;;;6.50;5.00;;;;;;;16.32;72.08;101072.95;1715630;81;21028;-78
2022/05/03 09:15:47;;;;;;;8.10;5.12;;;;;;;16.65;76.57;101064.20;1714214;82;22296;-78
2022/05/03 09:18:31;;;;;;;5.00;4.50;;;;;;;17.05;66.56;101061.42;1714752;82;21115;-76
2022/05/03 09:24:01;;;;;;;4.72;4.22;;;;;;;17.78;56.25;101057.87;1690546;82;21159;-76
2022/05/03 09:26:30;;;;;;;4.50;4.10;;;;;;;18.10;50.95;101048.59;1706287;80;21183;-79
2022/05/03 09:29:11;;;;;;;6.40;4.75;;;;;;;18.24;50.76;101046.70;1723788;81;21492;-79
2022/05/03 09:31:42;;;;;;;5.70;5.10;;;;;;;18.34;53.03;101037.86;1706823;82;21897;-78
2022/05/03 09:34:24;;;;;;;6.42;5.55;;;;;;;18.32;52.93;101037.18;1714300;81;21293;-76
2022/05/03 09:37:09;;;;;;;;;;;;;;;18.26;55.10;101038.16;1716127;81;21107;-76
2022/05/03 09:39:43;;;;;;;5.83;5.20;;;;;;;18.17;53.36;101035.12;1715274;82;20181;-77
2022/05/03 09:42:19;;;;;;;7.33;5.50;;;;;;;17.93;50.83;101031.31;1734563;81;21169;-76
2022/05/03 09:45:02;;;;;;;6.78;5.17;;;;;;;17.77;51.92;101025.45;1715126;82;21039;-76
2022/05/03 09:47:48;;;;;;;7.10;5.10;;;;;;;17.90;53.04;101025.52;1712755;82;21571;-77
2022/05/03 09:50:43;;;;;;;5.78;5.25;;;;;;;18.17;52.29;101018.50;1700203;81;21206;-78
2022/05/03 09:53:18;;;;;;;5.22;4.72;;;;;;;18.40;52.21;101016.98;1704912;83;21075;-78
2022/05/03 09:55:48;;;;;;;8.93;5.10;;;;;;;18.71;54.94;101011.66;1643156;85;21082;-77
2022/05/03 09:58:18;;;;;;;7.92;4.92;;;;;;;18.96;53.53;101014.41;1699330;83;21031;-78
2022/05/03 10:00:48;;;;;;;6.08;4.83;;;;;;;19.16;53.70;101013.15;1700124;83;21885;-78
2022/05/03 10:03:17;;;;;;;7.20;5.22;;;;;;;19.33;54.37;101007.89;1696417;83;21883;-78
2022/05/03 10:05:47;;;;;;;6.10;5.03;;;;;;;19.52;52.04;101010.20;1681237;84;21610;-78
2022/05/03 10:08:16;;;;;;;5.50;5.00;;;;;;;19.67;52.51;101001.61;1698682;83;21408;-77
2022/05/03 10:10:44;;;;;;;9.45;7.40;;;;;;;19.85;52.31;101000.97;1697343;83;21052;-77
2022/05/03 10:13:13;;;;;;;6.92;5.40;;;;;;;20.01;51.25;101004.09;1698788;83;21101;-78
2022/05/03 10:21:35;;;;;;;6.45;4.60;;;;;;;20.38;51.13;100994.41;1699926;82;21804;-78
2022/05/03 10:24:09;;;;;;;6.80;5.50;;;;;;;20.33;52.38;100990.95;1697977;83;21582;-78
2022/05/03 10:27:03;;;;;;;9.33;5.30;;;;;;;20.01;45.72;100991.36;1705025;82;21378;-78
2022/05/03 10:29:35;;;;;;;8.45;5.30;;;;;;;19.65;46.93;100991.73;1682854;83;21079;-77
2022/05/03 10:32:11;;;;;;;7.90;5.10;;;;;;;19.51;46.45;100990.05;1696941;83;21147;-79
2022/05/03 10:34:44;;;;;;;6.22;4.87;;;;;;;19.52;46.63;100985.11;1697109;83;21049;-77
2022/05/03 10:37:18;;;;;;;6.60;4.97;;;;;;;19.73;49.51;100977.19;1699160;83;21073;-78
2022/05/03 10:40:01;;;;;;;6.00;4.70;;;;;;;19.97;49.28;100975.02;1696623;83;21025;-78
2022/05/03 10:42:31;;;;;;;4.83;4.42;;;;;;;20.12;48.48;100973.00;1687901;83;21181;-78
2022/05/03 10:45:13;;;;;;;4.92;4.50;;;;;;;20.05;47.27;100975.52;1700384;82;21065;-78
2022/05/03 10:47:53;;;;;;;5.05;4.55;;;;;;;19.84;48.24;100969.41;1701059;82;21640;-78
2022/05/03 10:50:33;;;;;;;5.37;4.85;;;;;;;19.53;47.57;100966.95;1686808;83;21085;-78
2022/05/03 10:53:06;;;;;;;9.40;5.08;;;;;;;19.27;48.14;100965.00;1704012;81;21020;-81
2022/05/03 10:55:41;;;;;;;15.58;4.70;;;;;;;19.02;49.26;100964.97;1691980;83;21063;-78
2022/05/03 10:58:32;;;;;;;6.80;4.78;;;;;;;18.82;48.51;100957.30;1694675;83;21584;-79
2022/05/03 11:01:21;;;;;;;11.97;4.78;;;;;;;18.66;48.56;100946.22;1709327;81;21799;-79
2022/05/03 11:04:00;;;;;;;21.00;7.87;;;;;;;18.44;49.01;100955.53;1724459;81;21091;-77
2022/05/03 11:06:39;;;;;;;6.42;5.30;;;;;;;18.27;49.96;100958.09;1714074;81;21651;-79
2022/05/03 11:09:09;;;;;;;7.22;5.87;;;;;;;18.13;51.63;100958.19;1718309;82;21020;-78
2022/05/03 11:11:43;;;;;;;9.15;5.47;;;;;;;18.00;53.09;100949.05;1725297;81;21576;-79
2022/05/03 11:14:22;;;;;;;6.40;5.12;;;;;;;17.90;51.93;100948.66;1727396;81;23457;-78
2022/05/03 11:17:10;;;;;;;5.55;4.95;;;;;;;17.83;51.35;100946.28;1730049;81;21055;-78
2022/05/03 11:19:50;;;;;;;4.53;4.10;;;;;;;17.78;50.29;100948.56;1680169;84;21042;-78
2022/05/03 11:22:25;;;;;;;5.47;4.42;;;;;;;17.74;50.83;100942.78;1696088;83;21087;-82
2022/05/03 11:24:59;;;;;;;4.47;4.08;;;;;;;17.69;51.65;100936.31;1736229;80;21128;-77
2022/05/03 11:27:27;;;;;;;5.17;4.72;;;;;;;17.63;53.83;100934.65;1731731;81;21992;-78
2022/05/03 11:29:59;;;;;;;6.95;4.60;;;;;;;17.58;51.28;100931.66;1729468;81;21088;-77
2022/05/03 11:32:37;;;;;;;5.30;4.80;;;;;;;17.57;49.33;100929.16;1728444;81;21531;-84
2022/05/03 11:35:19;;;;;;;5.55;4.45;;;;;;;17.56;50.46;100930.98;1699555;83;21097;-78
2022/05/03 11:37:55;;;;;;;6.85;4.22;;;;;;;17.53;50.79;100923.88;1695913;82;21046;-79
2022/05/03 11:40:28;;;;;;;7.12;4.45;;;;;;;17.52;51.08;100926.98;1738832;80;21138;-79
2022/05/03 11:42:56;;;;;;;5.12;4.65;;;;;;;17.50;52.07;100917.94;1736361;80;21392;-83
2022/05/03 11:45:24;;;;;;;5.37;4.83;;;;;;;17.55;52.70;100918.79;1730919;81;21108;-83
2022/05/03 11:47:52;;;;;;;4.75;4.25;;;;;;;17.62;52.32;100909.80;1728388;82;21526;-79
2022/05/03 11:56:04;;;;;;;6.67;4.17;;;;;;;18.68;52.09;100891.98;1691775;82;21019;-78
2022/05/03 11:58:35;;;;;;;4.10;3.70;;;;;;;19.18;51.26;100900.80;1703563;82;21179;-78
2022/05/03 12:01:02;;;;;;;;;;;;;;;19.54;49.88;100886.73;1701159;82;20967;-78
2022/05/03 12:03:35;;;;;;;5.15;4.50;;;;;;;19.85;49.62;100881.26;1706517;83;20200;-79
2022/05/03 12:06:04;;;;;;;4.87;4.30;;;;;;;20.13;48.27;100883.45;1698032;84;22227;-82
2022/05/03 12:08:34;;;;;;;5.20;4.00;;;;;;;20.38;48.17;100881.53;1701127;84;21490;-78
2022/05/03 12:11:02;;;;;;;4.53;4.17;;;;;;;20.60;45.98;100880.41;1705246;83;21045;-77
2022/05/03 12:13:33;;;;;;;4.53;4.05;;;;;;;20.82;47.01;100874.00;1698128;83;21022;-78
2022/05/03 12:16:07;;;;;;;4.37;3.98;;;;;;;21.03;45.20;100870.19;1704221;83;22156;-78
2022/05/03 12:18:40;;;;;;;4.78;4.20;;;;;;;21.20;45.28;100866.91;1703488;82;21783;-77